Terminal Aerodrome Forecast
Issued by NWS Columbia, SC

Home | Current Version | Previous Version | Text Only | Print | Product List | Glossary On
Versions: 1 2 3 4 5 6 7 8 9 10 11 12 13 14 15 16 17 18 19 20 21 22 23 24 25 26 27 28
000
FTUS42 KCAE 292300
TAFCAE
TAF
KCAE 292320Z 3000/3024 19004KT P6SM SCT250
     FM300500 22004KT P6SM BKN040
     FM300900 23005KT P6SM BKN080
     FM301400 24010G15KT P6SM VCSH SCT015 OVC050
     FM302100 29012KT P6SM SCT250=

USA.gov is the U.S. government's official web portal to all federal, state and local government web resources and services.